createdAt,value
2022-09-22T00:01:30.378Z,5.78
2022-09-22T00:04:01.561Z,6.03
2022-09-22T00:06:33.102Z,5.88
2022-09-22T00:09:03.122Z,6.70
2022-09-22T00:11:33.462Z,6.20
2022-09-22T00:14:04.176Z,5.85
2022-09-22T00:16:36.608Z,6.03
2022-09-22T00:19:06.858Z,6.03
2022-09-22T00:21:36.774Z,6.10
2022-09-22T00:24:08.066Z,6.15
2022-09-22T00:26:38.118Z,6.70
2022-09-22T00:29:08.138Z,6.50
2022-09-22T00:31:37.765Z,6.25
2022-09-22T00:34:06.462Z,6.75
2022-09-22T00:36:36.951Z,7.10
2022-09-22T00:39:05.063Z,5.75
2022-09-22T00:41:36.334Z,6.85
2022-09-22T00:44:30.227Z,6.68
2022-09-22T00:47:01.717Z,6.32
2022-09-22T00:49:38.143Z,6.30
2022-09-22T00:52:08.161Z,5.75
2022-09-22T00:54:36.638Z,6.38
2022-09-22T00:57:08.951Z,6.07
2022-09-22T00:59:38.360Z,5.95
2022-09-22T01:02:07.232Z,6.15
2022-09-22T01:04:35.442Z,6.65
2022-09-22T01:07:04.491Z,6.00
2022-09-22T01:09:34.569Z,6.07
2022-09-22T01:12:04.501Z,6.07
2022-09-22T01:14:47.625Z,6.82
2022-09-22T01:17:23.698Z,6.15
2022-09-22T01:20:16.987Z,5.78
2022-09-22T01:23:15.248Z,6.00
2022-09-22T01:26:06.234Z,5.47
2022-09-22T01:28:51.590Z,6.00
2022-09-22T01:31:26.399Z,6.07
2022-09-22T01:34:04.486Z,6.18
2022-09-22T01:36:38.966Z,6.55
2022-09-22T01:39:13.722Z,5.90
2022-09-22T01:41:51.966Z,6.32
2022-09-22T01:44:27.062Z,6.38
2022-09-22T01:47:01.493Z,5.82
2022-09-22T01:49:33.998Z,6.13
2022-09-22T01:52:08.089Z,6.35
2022-09-22T01:54:42.058Z,6.18
2022-09-22T01:57:18.221Z,6.18
2022-09-22T01:59:51.514Z,5.93
2022-09-22T02:02:26.147Z,6.00
2022-09-22T02:04:58.663Z,6.28
2022-09-22T02:07:31.091Z,6.03
2022-09-22T02:10:01.628Z,6.40
2022-09-22T02:12:30.062Z,5.97
2022-09-22T02:14:58.170Z,6.97
2022-09-22T02:17:30.595Z,6.57
2022-09-22T02:20:01.215Z,6.50
2022-09-22T02:22:30.074Z,6.13
2022-09-22T02:24:58.122Z,6.60
2022-09-22T02:27:35.615Z,7.00
2022-09-22T02:30:08.263Z,6.82
2022-09-22T02:32:40.558Z,6.63
2022-09-22T02:35:10.070Z,6.18
2022-09-22T02:37:41.208Z,5.70
2022-09-22T02:40:14.939Z,6.97
2022-09-22T02:42:46.675Z,5.95
2022-09-22T02:45:19.483Z,6.35
2022-09-22T02:47:52.810Z,5.82
2022-09-22T02:51:12.584Z,6.15
2022-09-22T02:53:59.633Z,6.00
2022-09-22T02:56:54.035Z,5.53
2022-09-22T02:59:31.166Z,6.13
2022-09-22T03:01:59.642Z,6.22
2022-09-22T03:04:30.001Z,6.05
2022-09-22T03:06:58.435Z,7.10
2022-09-22T03:09:26.820Z,6.63
2022-09-22T03:12:07.827Z,6.10
2022-09-22T03:14:36.277Z,6.22
2022-09-22T03:17:04.688Z,5.80
2022-09-22T03:19:48.268Z,6.15
2022-09-22T03:22:20.029Z,6.40
2022-09-22T03:24:51.760Z,5.85
2022-09-22T03:27:19.957Z,5.95
2022-09-22T03:29:48.119Z,6.03
2022-09-22T03:32:20.783Z,6.15
2022-09-22T03:34:59.011Z,6.13
2022-09-22T03:37:34.904Z,6.32
2022-09-22T03:40:03.894Z,5.68
2022-09-22T03:42:32.954Z,6.57
2022-09-22T03:45:01.155Z,6.43
2022-09-22T03:47:29.471Z,7.18
2022-09-22T03:49:59.402Z,7.45
2022-09-22T03:52:32.721Z,7.18
2022-09-22T03:55:03.037Z,8.55
2022-09-22T03:58:01.929Z,7.85
2022-09-22T04:00:48.166Z,7.22
2022-09-22T04:03:26.712Z,7.95
2022-09-22T04:06:10.151Z,7.68
2022-09-22T04:08:40.027Z,7.63
2022-09-22T04:11:09.114Z,7.90
2022-09-22T04:13:42.723Z,7.30
2022-09-22T04:19:45.626Z,7.53
2022-09-22T04:22:32.375Z,7.30
2022-09-22T04:25:13.681Z,8.00
2022-09-22T04:28:05.936Z,8.87
2022-09-22T04:31:34.940Z,8.40
2022-09-22T04:38:53.786Z,9.25
2022-09-22T05:02:20.613Z,6.90
2022-09-22T05:09:57.750Z,6.93
2022-09-22T05:13:04.031Z,6.97
2022-09-22T05:24:11.361Z,6.77
2022-09-22T05:30:36.484Z,7.67
2022-09-22T05:33:05.013Z,8.00
2022-09-22T05:35:36.898Z,8.70
2022-09-22T05:38:05.613Z,8.63
2022-09-22T05:40:34.007Z,9.20
2022-09-22T05:43:03.681Z,8.60
2022-09-22T05:45:32.029Z,9.07
2022-09-22T05:48:00.410Z,9.17
2022-09-22T05:50:28.835Z,8.90
2022-09-22T05:53:05.185Z,8.82
2022-09-22T05:55:33.974Z,8.93
2022-09-22T05:58:03.641Z,8.60
2022-09-22T06:00:32.573Z,8.85
2022-09-22T06:03:00.933Z,8.50
2022-09-22T06:05:29.266Z,7.72
2022-09-22T06:08:02.927Z,9.07
2022-09-22T06:10:32.835Z,9.38
2022-09-22T06:13:01.365Z,9.13
2022-09-22T06:15:33.822Z,8.77
2022-09-22T06:18:02.257Z,8.77
2022-09-22T06:20:30.574Z,8.65
2022-09-22T06:22:58.928Z,8.60
2022-09-22T06:25:28.292Z,8.68
2022-09-22T06:28:01.975Z,8.77
2022-09-22T06:30:32.107Z,8.68
2022-09-22T06:33:00.480Z,9.30
2022-09-22T06:35:31.239Z,10.15
2022-09-22T06:37:59.932Z,9.15
2022-09-22T06:40:28.928Z,9.68
2022-09-22T06:43:10.642Z,9.68
2022-09-22T06:45:40.753Z,9.73
2022-09-22T06:48:10.607Z,9.93
2022-09-22T06:50:41.222Z,10.23
2022-09-22T06:53:12.800Z,9.98
2022-09-22T06:55:44.093Z,10.02
2022-09-22T06:58:12.956Z,9.88
2022-09-22T07:00:43.862Z,9.13
2022-09-22T07:03:19.662Z,9.68
2022-09-22T07:05:56.605Z,9.98
2022-09-22T07:08:26.065Z,8.75
2022-09-22T07:10:59.529Z,10.05
2022-09-22T07:13:29.740Z,10.98
2022-09-22T07:16:02.918Z,9.10
2022-09-22T07:18:31.594Z,8.93
2022-09-22T07:21:04.289Z,8.00
2022-09-22T07:23:34.798Z,7.45
2022-09-22T07:26:04.826Z,7.15
2022-09-22T07:28:35.329Z,7.28
2022-09-22T07:31:06.976Z,6.38
2022-09-22T07:33:35.865Z,6.95
2022-09-22T07:36:09.050Z,6.80
2022-09-22T07:38:37.975Z,6.93
2022-09-22T07:41:07.850Z,6.47
2022-09-22T07:43:36.474Z,6.75
2022-09-22T07:46:06.552Z,6.43
2022-09-22T07:48:44.108Z,6.00
2022-09-22T07:51:18.434Z,5.63
2022-09-22T07:53:48.588Z,7.32
2022-09-22T07:56:18.451Z,6.57
2022-09-22T07:58:51.049Z,6.05
2022-09-22T08:01:22.652Z,5.90
2022-09-22T08:03:52.236Z,5.90
2022-09-22T08:06:23.760Z,4.47
2022-09-22T08:08:56.423Z,4.47
2022-09-22T08:11:26.300Z,4.60
2022-09-22T08:13:57.184Z,4.60
2022-09-22T08:16:29.745Z,4.35
2022-09-22T08:18:59.115Z,4.55
2022-09-22T08:21:31.027Z,4.55
2022-09-22T08:24:00.948Z,4.80
2022-09-22T08:26:29.406Z,4.70
2022-09-22T08:28:58.535Z,5.22
2022-09-22T08:31:28.758Z,5.10
2022-09-22T08:33:57.686Z,4.70
2022-09-22T08:36:28.190Z,4.63
2022-09-22T08:38:58.004Z,4.32
2022-09-22T08:41:38.279Z,4.00
2022-09-22T08:44:22.950Z,4.65
2022-09-22T08:46:56.027Z,4.50
2022-09-22T08:49:45.519Z,4.43
2022-09-22T08:52:20.857Z,4.30
2022-09-22T08:54:50.119Z,4.18
2022-09-22T08:57:35.637Z,4.30
2022-09-22T09:00:07.476Z,4.50
2022-09-22T09:02:46.127Z,4.20
2022-09-22T09:05:51.730Z,4.20
2022-09-22T09:08:54.943Z,3.75
2022-09-22T09:11:37.239Z,3.70
2022-09-22T09:14:19.033Z,3.60
2022-09-22T09:16:54.075Z,4.00
2022-09-22T09:19:33.454Z,3.85
2022-09-22T09:22:05.547Z,3.58
2022-09-22T09:27:29.447Z,3.63
2022-09-22T09:30:03.887Z,3.05
2022-09-22T09:32:43.356Z,3.05
2022-09-22T09:35:16.321Z,2.80
2022-09-22T09:37:47.327Z,3.22
2022-09-22T09:40:18.441Z,3.20
2022-09-22T09:42:51.502Z,3.35
2022-09-22T09:45:26.016Z,2.92
2022-09-22T09:48:12.934Z,3.08
2022-09-22T09:50:42.665Z,3.00
2022-09-22T09:53:26.249Z,2.78
2022-09-22T09:55:55.266Z,2.30
2022-09-22T09:58:37.347Z,2.35
2022-09-22T10:01:09.587Z,2.20
2022-09-22T10:03:47.001Z,2.25
2022-09-22T10:06:25.398Z,2.30
2022-09-22T10:08:54.046Z,2.45
2022-09-22T10:11:31.326Z,2.50
2022-09-22T10:14:00.078Z,2.20
2022-09-22T10:16:28.900Z,2.42
2022-09-22T10:19:22.492Z,2.45
2022-09-22T10:21:52.953Z,2.70
2022-09-22T10:24:30.655Z,2.53
2022-09-22T10:27:02.436Z,2.20
2022-09-22T10:29:33.649Z,2.60
2022-09-22T10:32:13.352Z,2.55
2022-09-22T10:37:15.626Z,2.70
2022-09-22T10:39:49.916Z,2.72
2022-09-22T10:42:33.535Z,2.50
2022-09-22T10:45:07.093Z,2.60
2022-09-22T10:47:49.224Z,2.47
2022-09-22T10:50:47.329Z,3.03
2022-09-22T10:53:33.556Z,2.72
2022-09-22T10:56:09.511Z,2.58
2022-09-22T10:59:16.863Z,3.33
2022-09-22T11:01:59.120Z,2.90
2022-09-22T11:04:47.479Z,2.63
2022-09-22T11:07:47.002Z,2.70
2022-09-22T11:10:42.371Z,2.72
2022-09-22T11:13:20.926Z,3.15
2022-09-22T11:16:11.934Z,2.60
2022-09-22T11:18:56.259Z,2.78
2022-09-22T11:21:38.101Z,2.95
2022-09-22T11:24:19.228Z,2.70
2022-09-22T11:26:51.534Z,2.40
2022-09-22T11:29:47.526Z,2.80
2022-09-22T11:32:34.283Z,3.25
2022-09-22T11:35:21.057Z,3.80
2022-09-22T11:38:03.280Z,4.18
2022-09-22T11:43:43.326Z,3.30
2022-09-22T11:46:21.935Z,3.85
2022-09-22T11:49:01.697Z,3.60
2022-09-22T11:52:11.740Z,3.30
2022-09-22T11:55:19.266Z,3.22
2022-09-22T11:57:52.639Z,3.45
2022-09-22T12:00:23.358Z,3.83
2022-09-22T12:03:01.918Z,3.53
2022-09-22T12:05:36.374Z,3.85
2022-09-22T12:08:08.837Z,3.08
2022-09-22T12:10:40.897Z,3.33
2022-09-22T12:13:13.438Z,3.90
2022-09-22T12:15:49.239Z,4.00
2022-09-22T12:18:22.739Z,3.50
2022-09-22T12:20:59.920Z,3.90
2022-09-22T12:23:51.294Z,3.40
2022-09-22T12:26:28.709Z,3.85
2022-09-22T12:28:58.753Z,4.05
2022-09-22T12:31:36.615Z,3.97
2022-09-22T12:34:07.117Z,3.92
2022-09-22T12:36:38.354Z,3.83
2022-09-22T12:39:17.208Z,3.55
2022-09-22T12:41:48.259Z,3.88
2022-09-22T12:44:21.138Z,3.72
2022-09-22T12:46:52.002Z,4.07
2022-09-22T12:49:22.997Z,3.50
2022-09-22T12:51:52.140Z,4.05
2022-09-22T12:54:47.663Z,3.90
2022-09-22T12:57:29.664Z,4.45
2022-09-22T13:00:08.645Z,3.97
2022-09-22T13:02:44.881Z,4.20
2022-09-22T13:05:46.434Z,3.75
2022-09-22T13:08:26.812Z,3.78
2022-09-22T13:11:00.690Z,7.55
2022-09-22T13:13:46.863Z,7.78
2022-09-22T13:16:36.558Z,3.97
2022-09-22T13:19:11.625Z,4.22
2022-09-22T13:21:40.338Z,3.20
2022-09-22T13:24:23.680Z,3.40
2022-09-22T13:27:05.096Z,3.63
2022-09-22T13:29:34.529Z,3.97
2022-09-22T13:32:18.699Z,3.50
2022-09-22T13:34:49.316Z,3.53
2022-09-22T13:37:22.602Z,2.90
2022-09-22T13:39:53.347Z,3.75
2022-09-22T13:42:32.498Z,3.90
2022-09-22T13:45:03.706Z,4.05
2022-09-22T13:47:32.552Z,3.70
2022-09-22T13:50:07.294Z,3.50
2022-09-22T13:52:39.051Z,4.28
2022-09-22T13:55:10.960Z,11.32
2022-09-22T13:57:39.815Z,6.07
2022-09-22T14:00:10.432Z,4.05
2022-09-22T14:02:45.936Z,3.30
2022-09-22T14:05:22.286Z,4.45
2022-09-22T14:08:10.883Z,4.50
2022-09-22T14:10:41.938Z,4.72
2022-09-22T14:13:37.027Z,4.38
2022-09-22T14:16:11.814Z,4.63
2022-09-22T14:18:44.734Z,4.07
2022-09-22T14:21:14.817Z,3.10
2022-09-22T14:23:48.595Z,2.72
2022-09-22T14:26:27.234Z,2.70
2022-09-22T14:28:59.154Z,4.65
2022-09-22T14:31:32.439Z,12.23
2022-09-22T14:34:02.309Z,5.60
2022-09-22T14:36:37.487Z,6.15
2022-09-22T14:39:09.932Z,3.45
2022-09-22T14:41:39.588Z,3.85
2022-09-22T14:44:35.437Z,2.70
2022-09-22T14:47:22.019Z,2.97
2022-09-22T14:49:50.327Z,3.70
2022-09-22T14:52:29.907Z,16.15
2022-09-22T14:55:03.131Z,11.80
2022-09-22T14:57:31.446Z,4.70
2022-09-22T15:00:18.756Z,3.88
2022-09-22T15:02:50.929Z,7.35
2022-09-22T15:05:29.587Z,3.70
2022-09-22T15:08:00.193Z,4.78
2022-09-22T15:10:30.138Z,4.22
2022-09-22T15:13:19.675Z,3.10
2022-09-22T15:15:49.435Z,3.00
2022-09-22T15:18:19.318Z,3.10
2022-09-22T15:20:50.131Z,2.42
2022-09-22T15:23:24.169Z,2.67
2022-09-22T15:25:53.419Z,2.17
2022-09-22T15:28:23.999Z,2.05
2022-09-22T15:30:53.569Z,2.00
2022-09-22T15:33:22.591Z,2.00
2022-09-22T15:35:54.752Z,2.05
2022-09-22T15:38:27.614Z,2.15
2022-09-22T15:40:57.504Z,2.10
2022-09-22T15:43:30.867Z,1.90
2022-09-22T15:46:02.114Z,2.22
2022-09-22T15:48:32.310Z,3.47
2022-09-22T15:51:04.842Z,2.30
2022-09-22T15:53:36.069Z,2.10
2022-09-22T15:56:06.946Z,1.80
2022-09-22T15:58:37.310Z,1.90
2022-09-22T16:01:07.958Z,1.90
2022-09-22T16:03:41.331Z,1.85
2022-09-22T16:06:13.378Z,2.10
2022-09-22T16:08:46.233Z,2.17
2022-09-22T16:11:16.575Z,2.17
2022-09-22T16:13:45.177Z,3.20
2022-09-22T16:16:13.738Z,2.88
2022-09-22T16:18:42.224Z,2.10
2022-09-22T16:21:20.006Z,2.10
2022-09-22T16:23:49.838Z,2.90
2022-09-22T16:26:18.314Z,3.47
2022-09-22T16:28:46.611Z,3.33
2022-09-22T16:31:15.742Z,2.53
2022-09-22T16:33:45.290Z,3.03
2022-09-22T16:36:13.574Z,3.15
2022-09-22T16:38:41.887Z,2.30
2022-09-22T16:41:20.975Z,2.00
2022-09-22T16:43:49.668Z,2.20
2022-09-22T16:46:30.566Z,2.03
2022-09-22T16:49:00.784Z,2.10
2022-09-22T16:51:29.648Z,2.28
2022-09-22T16:53:58.140Z,1.67
2022-09-22T16:56:29.501Z,3.08
2022-09-22T16:59:01.373Z,2.20
2022-09-22T17:01:31.248Z,2.50
2022-09-22T17:04:00.078Z,2.38
2022-09-22T17:06:28.452Z,2.33
2022-09-22T17:08:58.040Z,2.88
2022-09-22T17:11:30.715Z,2.92
2022-09-22T17:14:01.543Z,2.60
2022-09-22T17:16:31.443Z,2.78
2022-09-22T17:19:03.116Z,2.83
2022-09-22T17:21:34.573Z,2.47
2022-09-22T17:24:04.947Z,2.60
2022-09-22T17:26:37.194Z,3.28
2022-09-22T17:29:06.499Z,3.10
2022-09-22T17:31:36.373Z,3.50
2022-09-22T17:34:04.721Z,3.67
2022-09-22T17:36:33.705Z,3.60
2022-09-22T17:39:02.686Z,3.45
2022-09-22T17:41:32.962Z,3.65
2022-09-22T17:44:03.865Z,3.90
2022-09-22T17:46:34.123Z,3.42
2022-09-22T17:49:20.350Z,3.28
2022-09-22T17:52:07.204Z,3.05
2022-09-22T17:54:54.454Z,2.92
2022-09-22T17:57:24.522Z,2.63
2022-09-22T17:59:56.453Z,2.60
2022-09-22T18:02:27.050Z,3.10
2022-09-22T18:04:55.688Z,3.08
2022-09-22T18:07:25.102Z,3.38
2022-09-22T18:09:55.546Z,4.03
2022-09-22T18:12:25.651Z,4.80
2022-09-22T18:14:56.557Z,5.53
2022-09-22T18:17:27.844Z,5.57
2022-09-22T18:19:57.127Z,6.22
2022-09-22T18:22:26.737Z,5.93
2022-09-22T18:24:56.328Z,6.47
2022-09-22T18:27:27.984Z,7.07
2022-09-22T18:29:59.637Z,6.70
2022-09-22T18:32:29.224Z,5.68
2022-09-22T18:34:57.584Z,5.90
2022-09-22T18:37:26.992Z,5.55
2022-09-22T18:39:55.515Z,6.78
2022-09-22T18:42:27.616Z,6.70
2022-09-22T18:44:57.333Z,8.00
2022-09-22T18:47:25.661Z,7.97
2022-09-22T18:49:54.061Z,8.38
2022-09-22T18:52:24.522Z,8.65
2022-09-22T18:54:54.751Z,8.57
2022-09-22T18:57:25.649Z,8.85
2022-09-22T18:59:57.783Z,8.18
2022-09-22T19:02:27.749Z,8.75
2022-09-22T19:04:56.176Z,8.63
2022-09-22T19:07:42.428Z,8.43
2022-09-22T19:10:13.355Z,7.63
2022-09-22T19:12:42.714Z,8.88
2022-09-22T19:15:15.346Z,9.60
2022-09-22T19:17:47.057Z,9.10
2022-09-22T19:20:17.600Z,9.18
2022-09-22T19:22:46.940Z,10.52
2022-09-22T19:25:16.181Z,10.45
2022-09-22T19:27:44.618Z,11.18
2022-09-22T19:30:13.880Z,11.15
2022-09-22T19:32:42.410Z,11.15
2022-09-22T19:35:12.324Z,10.88
2022-09-22T19:37:41.339Z,10.50
2022-09-22T19:40:13.218Z,10.77
2022-09-22T19:42:41.578Z,10.25
2022-09-22T19:45:10.571Z,11.43
2022-09-22T19:47:39.548Z,11.45
2022-09-22T19:50:09.060Z,11.05
2022-09-22T19:52:39.083Z,11.05
2022-09-22T19:55:09.548Z,11.57
2022-09-22T19:57:41.370Z,10.48
2022-09-22T20:00:12.157Z,10.48
2022-09-22T20:02:40.441Z,10.55
2022-09-22T20:05:19.219Z,10.30
2022-09-22T20:07:49.276Z,10.48
2022-09-22T20:10:19.060Z,9.70
2022-09-22T20:12:47.651Z,9.75
2022-09-22T20:15:16.155Z,11.38
2022-09-22T20:17:46.282Z,11.35
2022-09-22T20:20:15.644Z,13.32
2022-09-22T20:22:44.511Z,13.35
2022-09-22T20:25:23.104Z,14.13
2022-09-22T20:27:51.472Z,14.10
2022-09-22T20:30:20.224Z,14.57
2022-09-22T20:32:48.892Z,14.77
2022-09-22T20:35:19.121Z,14.02
2022-09-22T20:37:47.435Z,12.20
2022-09-22T20:40:18.674Z,13.13
2022-09-22T20:42:49.030Z,12.20
2022-09-22T20:45:20.939Z,11.18
2022-09-22T20:47:49.256Z,11.07
2022-09-22T20:50:17.988Z,10.55
2022-09-22T20:52:47.991Z,10.30
2022-09-22T20:55:16.605Z,9.88
2022-09-22T20:57:44.952Z,9.77
2022-09-22T21:00:16.311Z,9.65
2022-09-22T21:02:44.976Z,9.85
2022-09-22T21:05:13.290Z,9.57
2022-09-22T21:07:41.628Z,9.77
2022-09-22T21:10:28.026Z,9.93
2022-09-22T21:12:56.584Z,10.60
2022-09-22T21:15:26.372Z,11.77
2022-09-22T21:17:54.692Z,11.63
2022-09-22T21:20:23.313Z,13.32
2022-09-22T21:22:52.850Z,13.45
2022-09-22T21:25:21.083Z,12.52
2022-09-22T21:27:49.421Z,11.43
2022-09-22T21:30:17.790Z,11.65
2022-09-22T21:32:48.035Z,11.20
2022-09-22T21:35:17.442Z,11.35
2022-09-22T21:37:45.919Z,11.18
2022-09-22T21:40:14.414Z,10.85
2022-09-22T21:42:42.855Z,11.77
2022-09-22T21:45:12.991Z,10.82
2022-09-22T21:47:41.466Z,11.77
2022-09-22T21:50:11.516Z,11.05
2022-09-22T21:52:39.808Z,11.88
2022-09-22T21:55:08.934Z,11.75
2022-09-22T21:57:37.186Z,12.88
2022-09-22T22:00:07.871Z,12.25
2022-09-22T22:02:53.944Z,13.35
2022-09-22T22:05:23.652Z,12.77
2022-09-22T22:07:52.005Z,13.75
2022-09-22T22:10:20.345Z,14.52
2022-09-22T22:12:48.652Z,14.18
2022-09-22T22:15:16.936Z,14.65
2022-09-22T22:17:45.290Z,14.77
2022-09-22T22:20:13.520Z,14.85
2022-09-22T22:22:43.209Z,14.88
2022-09-22T22:25:17.350Z,14.32
2022-09-22T22:27:45.981Z,13.95
2022-09-22T22:30:14.636Z,14.23
2022-09-22T22:32:43.373Z,14.27
2022-09-22T22:35:11.807Z,13.52
2022-09-22T22:37:40.203Z,13.70
2022-09-22T22:40:10.741Z,15.10
2022-09-22T22:42:39.060Z,14.23
2022-09-22T22:45:07.842Z,14.20
2022-09-22T22:47:36.135Z,15.27
2022-09-22T22:50:04.470Z,15.18
2022-09-22T22:52:32.797Z,15.52
2022-09-22T22:55:01.043Z,15.23
2022-09-22T22:57:30.755Z,15.82
2022-09-22T22:59:59.010Z,15.27
2022-09-22T23:02:27.314Z,15.18
2022-09-22T23:04:58.684Z,15.00
2022-09-22T23:07:27.663Z,15.63
2022-09-22T23:10:06.489Z,14.85
2022-09-22T23:12:40.124Z,15.10
2022-09-22T23:15:10.781Z,15.30
2022-09-22T23:17:39.549Z,15.27
2022-09-22T23:20:09.196Z,14.32
2022-09-22T23:22:37.524Z,14.32
2022-09-22T23:25:06.395Z,13.93
2022-09-22T23:27:36.093Z,14.13
2022-09-22T23:30:04.757Z,14.18
2022-09-22T23:32:33.229Z,14.77
2022-09-22T23:35:01.432Z,14.70
2022-09-22T23:37:29.738Z,14.05
2022-09-22T23:39:58.062Z,14.10
2022-09-22T23:42:26.384Z,14.00
2022-09-22T23:44:56.093Z,13.88
2022-09-22T23:47:24.532Z,14.52
2022-09-22T23:49:52.862Z,13.95
2022-09-22T23:52:22.544Z,14.23
2022-09-22T23:54:51.210Z,14.15
2022-09-22T23:57:19.474Z,13.82
2022-09-22T23:59:47.794Z,15.07
